createdAt,value
2018-04-04T00:00:06.979Z,17.50
2018-04-04T00:02:34.474Z,17.50
2018-04-04T00:05:02.049Z,17.50
2018-04-04T00:07:31.053Z,17.50
2018-04-04T00:09:58.596Z,17.50
2018-04-04T00:12:26.108Z,17.50
2018-04-04T00:14:53.632Z,17.50
2018-04-04T00:17:21.134Z,17.50
2018-04-04T00:19:48.656Z,17.50
2018-04-04T00:22:16.931Z,17.40
2018-04-04T00:24:45.201Z,17.40
2018-04-04T00:27:12.768Z,17.40
2018-04-04T00:29:41.074Z,17.30
2018-04-04T00:32:08.613Z,17.30
2018-04-04T00:34:36.887Z,17.30
2018-04-04T00:37:05.164Z,17.30
2018-04-04T00:39:33.443Z,17.20
2018-04-04T00:42:00.960Z,17.20
2018-04-04T00:44:29.964Z,17.20
2018-04-04T00:46:58.980Z,17.20
2018-04-04T00:49:26.475Z,17.20
2018-04-04T00:51:54.009Z,17.10
2018-04-04T00:54:21.520Z,17.10
2018-04-04T00:56:49.015Z,17.00
2018-04-04T00:59:16.544Z,17.00
2018-04-04T01:01:44.064Z,17.00
2018-04-04T01:04:11.661Z,16.90
2018-04-04T01:06:39.158Z,16.90
2018-04-04T01:09:06.684Z,16.90
2018-04-04T01:11:34.950Z,16.90
2018-04-04T01:14:02.466Z,16.80
2018-04-04T01:16:29.972Z,16.90
2018-04-04T01:18:58.266Z,16.90
2018-04-04T01:21:26.527Z,16.80
2018-04-04T01:23:54.809Z,16.80
2018-04-04T01:26:23.103Z,16.80
2018-04-04T01:28:50.682Z,16.70
2018-04-04T01:31:18.205Z,16.70
2018-04-04T01:33:45.700Z,16.70
2018-04-04T01:36:13.248Z,16.70
2018-04-04T01:38:40.758Z,16.70
2018-04-04T01:41:08.277Z,16.60
2018-04-04T01:43:35.774Z,16.60
2018-04-04T01:46:12.144Z,16.60
2018-04-04T01:48:40.467Z,16.60
2018-04-04T01:51:08.712Z,16.60
2018-04-04T01:53:36.214Z,16.60
2018-04-04T01:56:03.763Z,16.60
2018-04-04T01:58:31.250Z,16.50
2018-04-04T02:00:58.740Z,16.60
2018-04-04T02:03:27.032Z,16.50
2018-04-04T02:05:54.527Z,16.50
2018-04-04T02:08:22.183Z,16.50
2018-04-04T02:10:49.692Z,16.60
2018-04-04T02:13:17.977Z,16.60
2018-04-04T02:15:45.476Z,16.50
2018-04-04T02:18:13.027Z,16.50
2018-04-04T02:20:40.524Z,16.50
2018-04-04T02:23:08.817Z,16.50
2018-04-04T02:25:36.973Z,16.50
2018-04-04T02:28:04.621Z,16.40
2018-04-04T02:30:32.139Z,16.40
2018-04-04T02:32:59.648Z,16.40
2018-04-04T02:35:27.928Z,16.30
2018-04-04T02:37:56.196Z,16.30
2018-04-04T02:40:23.715Z,16.30
2018-04-04T02:42:51.219Z,16.30
2018-04-04T02:45:19.511Z,16.20
2018-04-04T02:47:47.001Z,16.20
2018-04-04T02:50:14.565Z,16.20
2018-04-04T02:52:42.077Z,16.20
2018-04-04T02:55:10.381Z,16.20
2018-04-04T02:57:37.889Z,16.20
2018-04-04T03:00:05.400Z,16.20
2018-04-04T03:02:32.932Z,16.20
2018-04-04T03:05:00.437Z,16.10
2018-04-04T03:07:27.963Z,16.10
2018-04-04T03:09:55.463Z,16.10
2018-04-04T03:12:22.990Z,16.00
2018-04-04T03:14:50.528Z,16.00
2018-04-04T03:17:18.072Z,16.00
2018-04-04T03:19:45.581Z,16.00
2018-04-04T03:22:13.135Z,16.00
2018-04-04T03:24:40.635Z,15.90
2018-04-04T03:27:08.960Z,15.90
2018-04-04T03:29:36.448Z,15.90
2018-04-04T03:32:03.975Z,15.90
2018-04-04T03:34:31.475Z,15.90
2018-04-04T03:36:58.997Z,15.90
2018-04-04T03:39:26.496Z,15.90
2018-04-04T03:41:54.794Z,15.80
2018-04-04T03:44:22.311Z,15.80
2018-04-04T03:46:49.808Z,15.70
2018-04-04T03:49:17.344Z,15.70
2018-04-04T03:51:45.613Z,15.50
2018-04-04T03:54:13.149Z,15.50
2018-04-04T03:56:40.652Z,15.50
2018-04-04T03:59:08.146Z,15.50
2018-04-04T04:01:35.688Z,15.50
2018-04-04T04:04:03.233Z,15.50
2018-04-04T04:06:30.755Z,15.40
2018-04-04T04:08:58.243Z,15.40
2018-04-04T04:11:25.760Z,15.40
2018-04-04T04:13:53.255Z,15.40
2018-04-04T04:16:20.787Z,15.30
2018-04-04T04:18:48.328Z,15.30
2018-04-04T04:21:17.352Z,15.30
2018-04-04T04:23:45.636Z,15.20
2018-04-04T04:26:13.159Z,15.20
2018-04-04T04:28:40.662Z,15.10
2018-04-04T04:31:08.200Z,15.10
2018-04-04T04:33:36.467Z,15.20
2018-04-04T04:36:04.748Z,15.20
2018-04-04T04:38:33.046Z,15.20
2018-04-04T04:41:00.538Z,15.10
2018-04-04T04:43:28.057Z,15.10
2018-04-04T04:45:55.556Z,15.10
2018-04-04T04:48:23.080Z,15.00
2018-04-04T04:50:50.987Z,15.10
2018-04-04T04:53:18.512Z,15.00
2018-04-04T04:55:46.007Z,15.00
2018-04-04T04:58:14.312Z,15.00
2018-04-04T05:00:42.572Z,14.90
2018-04-04T05:03:10.880Z,14.80
2018-04-04T05:05:38.376Z,14.90
2018-04-04T05:08:05.881Z,14.90
2018-04-04T05:10:34.164Z,14.80
2018-04-04T05:13:01.667Z,14.80
2018-04-04T05:15:29.187Z,14.80
2018-04-04T05:17:56.697Z,14.70
2018-04-04T05:20:24.282Z,14.80
2018-04-04T05:22:52.547Z,14.70
2018-04-04T05:25:20.122Z,14.70
2018-04-04T05:27:48.401Z,14.80
2018-04-04T05:30:16.692Z,14.80
2018-04-04T05:32:44.203Z,14.80
2018-04-04T05:35:11.725Z,14.80
2018-04-04T05:37:39.226Z,14.80
2018-04-04T05:40:06.760Z,14.90
2018-04-04T05:42:34.253Z,14.90
2018-04-04T05:45:02.519Z,14.90
2018-04-04T05:47:30.802Z,14.90
2018-04-04T05:49:59.064Z,14.90
2018-04-04T05:52:26.601Z,14.90
2018-04-04T05:54:54.117Z,14.90
2018-04-04T05:57:21.652Z,14.90
2018-04-04T05:59:49.976Z,14.90
2018-04-04T06:02:17.504Z,14.90
2018-04-04T06:04:45.030Z,14.90
2018-04-04T06:07:12.551Z,14.90
2018-04-04T06:09:40.067Z,14.90
2018-04-04T06:12:08.351Z,14.90
2018-04-04T06:14:35.872Z,14.90
2018-04-04T06:17:04.883Z,14.90
2018-04-04T06:19:33.174Z,14.90
2018-04-04T06:22:00.688Z,14.90
2018-04-04T06:24:28.233Z,14.90
2018-04-04T06:26:55.735Z,15.00
2018-04-04T06:29:24.036Z,15.00
2018-04-04T06:31:51.556Z,15.00
2018-04-04T06:34:19.844Z,15.00
2018-04-04T06:36:48.104Z,15.00
2018-04-04T06:39:15.642Z,15.00
2018-04-04T06:41:43.148Z,15.10
2018-04-04T06:44:10.663Z,15.10
2018-04-04T06:46:38.194Z,15.20
2018-04-04T06:49:05.692Z,15.20
2018-04-04T06:51:33.208Z,15.20
2018-04-04T06:54:00.731Z,15.30
2018-04-04T06:56:29.016Z,15.40
2018-04-04T06:58:56.578Z,15.40
2018-04-04T07:01:24.116Z,15.40
2018-04-04T07:03:52.407Z,15.50
2018-04-04T07:06:19.921Z,15.50
2018-04-04T07:08:47.466Z,15.60
2018-04-04T07:11:14.983Z,15.60
2018-04-04T07:13:42.505Z,15.70
2018-04-04T07:16:10.005Z,15.70
2018-04-04T07:18:37.527Z,15.70
2018-04-04T07:21:05.823Z,15.70
2018-04-04T07:23:34.088Z,15.80
2018-04-04T07:26:02.366Z,15.80
2018-04-04T07:28:30.644Z,15.80
2018-04-04T07:30:58.945Z,15.90
2018-04-04T07:33:26.451Z,15.80
2018-04-04T07:35:53.985Z,15.90
2018-04-04T07:38:21.490Z,15.90
2018-04-04T07:40:49.754Z,15.90
2018-04-04T07:43:18.268Z,15.90
2018-04-04T07:45:45.585Z,15.90
2018-04-04T07:48:13.859Z,16.00
2018-04-04T07:50:41.388Z,16.00
2018-04-04T07:53:08.887Z,16.10
2018-04-04T07:55:37.220Z,16.10
2018-04-04T07:58:04.748Z,16.10
2018-04-04T08:00:32.248Z,16.10
2018-04-04T08:02:59.789Z,16.20
2018-04-04T08:05:27.281Z,16.20
2018-04-04T08:07:55.583Z,16.10
2018-04-04T08:10:23.125Z,16.10
2018-04-04T08:12:51.437Z,16.20
2018-04-04T08:15:19.098Z,16.10
2018-04-04T08:17:46.664Z,16.20
2018-04-04T08:20:14.171Z,16.30
2018-04-04T08:22:42.504Z,16.40
2018-04-04T08:25:10.030Z,16.40
2018-04-04T08:27:37.560Z,16.40
2018-04-04T08:30:05.841Z,16.50
2018-04-04T08:32:34.147Z,16.60
2018-04-04T08:35:01.649Z,16.60
2018-04-04T08:37:29.176Z,16.60
2018-04-04T08:39:56.676Z,16.70
2018-04-04T08:42:24.972Z,16.90
2018-04-04T08:44:53.260Z,17.00
2018-04-04T08:47:20.758Z,17.00
2018-04-04T08:49:48.292Z,17.10
2018-04-04T08:52:15.809Z,17.20
2018-04-04T08:54:43.337Z,17.30
2018-04-04T08:57:10.865Z,17.40
2018-04-04T08:59:38.399Z,17.50
2018-04-04T09:02:06.680Z,17.60
2018-04-04T09:04:34.972Z,17.70
2018-04-04T09:07:02.503Z,17.70
2018-04-04T09:09:30.807Z,17.90
2018-04-04T09:11:58.328Z,17.90
2018-04-04T09:14:26.630Z,18.10
2018-04-04T09:16:54.186Z,18.10
2018-04-04T09:19:21.724Z,18.20
2018-04-04T09:21:50.005Z,18.20
2018-04-04T09:24:18.287Z,18.30
2018-04-04T09:26:46.611Z,18.40
2018-04-04T09:29:14.133Z,18.40
2018-04-04T09:31:41.634Z,18.40
2018-04-04T09:34:09.184Z,18.50
2018-04-04T09:36:36.732Z,18.60
2018-04-04T09:39:04.248Z,18.70
2018-04-04T09:41:31.791Z,18.80
2018-04-04T09:43:59.301Z,18.90
2018-04-04T09:46:27.085Z,18.90
2018-04-04T09:48:54.384Z,19.00
2018-04-04T09:51:22.667Z,19.10
2018-04-04T09:53:50.171Z,19.10
2018-04-04T09:56:17.708Z,19.10
2018-04-04T09:58:45.204Z,19.10
2018-04-04T10:01:12.723Z,19.10
2018-04-04T10:03:40.222Z,19.10
2018-04-04T10:06:07.766Z,19.10
2018-04-04T10:08:35.266Z,19.20
2018-04-04T10:11:02.818Z,19.30
2018-04-04T10:13:31.114Z,19.40
2018-04-04T10:15:58.695Z,19.40
2018-04-04T10:18:26.209Z,19.50
2018-04-04T10:20:54.500Z,19.70
2018-04-04T10:23:22.019Z,19.70
2018-04-04T10:25:49.511Z,19.90
2018-04-04T10:28:17.078Z,20.00
2018-04-04T10:30:44.576Z,20.10
2018-04-04T10:33:12.096Z,20.20
2018-04-04T10:35:39.586Z,20.30
2018-04-04T10:38:07.152Z,20.40
2018-04-04T10:40:34.761Z,20.40
2018-04-04T10:43:02.272Z,20.40
2018-04-04T10:45:29.828Z,20.40
2018-04-04T10:47:57.335Z,20.30
2018-04-04T10:50:24.886Z,20.50
2018-04-04T10:52:53.184Z,20.80
2018-04-04T10:55:20.699Z,20.80
2018-04-04T10:57:48.194Z,21.00
2018-04-04T11:00:15.724Z,21.20
2018-04-04T11:02:43.986Z,21.60
2018-04-04T11:05:11.506Z,21.60
2018-04-04T11:07:38.995Z,21.70
2018-04-04T11:10:06.584Z,21.80
2018-04-04T11:12:34.085Z,22.00
2018-04-04T11:15:01.585Z,22.20
2018-04-04T11:17:29.942Z,22.60
2018-04-04T11:19:57.744Z,22.60
2018-04-04T11:22:25.289Z,22.90
2018-04-04T11:24:53.562Z,23.00
2018-04-04T11:27:21.875Z,23.00
2018-04-04T11:29:49.377Z,23.00
2018-04-04T11:32:17.033Z,23.20
2018-04-04T11:34:44.592Z,23.40
2018-04-04T11:37:12.152Z,23.50
2018-04-04T11:39:39.692Z,23.60
2018-04-04T11:42:07.187Z,23.60
2018-04-04T11:44:35.500Z,23.70
2018-04-04T11:47:03.007Z,23.80
2018-04-04T11:49:30.537Z,23.80
2018-04-04T11:51:58.048Z,24.00
2018-04-04T11:54:25.584Z,24.10
2018-04-04T11:56:53.107Z,24.10
2018-04-04T11:59:20.736Z,24.00
2018-04-04T12:01:48.232Z,23.80
2018-04-04T12:04:15.772Z,23.70
2018-04-04T12:06:43.315Z,23.60
2018-04-04T12:09:10.843Z,23.50
2018-04-04T12:11:39.132Z,23.20
2018-04-04T12:14:06.652Z,23.20
2018-04-04T12:16:34.455Z,23.10
2018-04-04T12:19:01.996Z,23.00
2018-04-04T12:21:30.277Z,22.80
2018-04-04T12:23:58.580Z,22.70
2018-04-04T12:26:26.095Z,22.70
2018-04-04T12:28:53.595Z,22.70
2018-04-04T12:31:21.136Z,22.60
2018-04-04T12:33:48.628Z,22.50
2018-04-04T12:36:16.153Z,22.50
2018-04-04T12:38:43.651Z,22.50
2018-04-04T12:41:11.180Z,22.40
2018-04-04T12:43:38.684Z,22.50
2018-04-04T12:46:06.220Z,22.50
2018-04-04T12:48:33.788Z,22.60
2018-04-04T12:51:01.304Z,22.90
2018-04-04T12:53:28.815Z,23.20
2018-04-04T12:55:56.315Z,23.30
2018-04-04T12:58:23.832Z,23.50
2018-04-04T13:00:51.360Z,23.60
2018-04-04T13:03:18.883Z,23.60
2018-04-04T13:05:46.371Z,23.50
2018-04-04T13:08:13.896Z,23.30
2018-04-04T13:10:42.161Z,23.00
2018-04-04T13:13:10.455Z,22.90
2018-04-04T13:15:37.973Z,22.90
2018-04-04T13:18:05.500Z,22.60
2018-04-04T13:20:33.024Z,22.20
2018-04-04T13:23:00.568Z,21.70
2018-04-04T13:25:28.857Z,21.00
2018-04-04T13:27:56.365Z,21.00
2018-04-04T13:30:24.196Z,21.10
2018-04-04T13:32:51.709Z,21.10
2018-04-04T13:35:19.247Z,21.10
2018-04-04T13:37:46.789Z,21.10
2018-04-04T13:40:14.323Z,21.10
2018-04-04T13:42:41.859Z,20.90
2018-04-04T13:45:10.154Z,20.30
2018-04-04T13:47:37.682Z,20.30
2018-04-04T13:50:05.990Z,20.10
2018-04-04T13:52:33.508Z,20.10
2018-04-04T13:55:01.091Z,20.20
2018-04-04T13:57:29.360Z,20.30
2018-04-04T13:59:57.968Z,20.40
2018-04-04T14:02:25.487Z,20.40
2018-04-04T14:04:53.764Z,20.30
2018-04-04T14:07:22.062Z,20.40
2018-04-04T14:09:49.556Z,20.40
2018-04-04T14:12:17.086Z,20.40
2018-04-04T14:14:44.595Z,20.40
2018-04-04T14:17:12.099Z,20.50
2018-04-04T14:19:39.619Z,20.60
2018-04-04T14:22:07.124Z,20.70
2018-04-04T14:24:34.639Z,20.70
2018-04-04T14:27:02.902Z,20.80
2018-04-04T14:29:30.415Z,20.80
2018-04-04T14:31:57.921Z,20.80
2018-04-04T14:34:25.504Z,20.90
2018-04-04T14:36:53.806Z,21.00
2018-04-04T14:39:21.324Z,21.00
2018-04-04T14:41:48.847Z,21.00
2018-04-04T14:44:16.366Z,21.00
2018-04-04T14:46:43.868Z,21.10
2018-04-04T14:49:11.389Z,21.20
2018-04-04T14:51:38.884Z,21.20
2018-04-04T14:54:06.408Z,21.10
2018-04-04T14:56:33.916Z,20.90
2018-04-04T14:59:02.237Z,20.70
2018-04-04T15:01:29.758Z,20.70
2018-04-04T15:03:58.097Z,20.70
2018-04-04T15:06:25.599Z,20.70
2018-04-04T15:08:53.856Z,20.40
2018-04-04T15:11:22.105Z,20.40
2018-04-04T15:13:49.628Z,20.30
2018-04-04T15:16:17.160Z,20.20
2018-04-04T15:18:45.433Z,19.80
2018-04-04T15:21:12.952Z,19.80
2018-04-04T15:23:40.462Z,19.60
2018-04-04T15:26:08.743Z,19.30
2018-04-04T15:28:37.030Z,19.10
2018-04-04T15:31:04.577Z,19.10
2018-04-04T15:33:32.850Z,18.50
2018-04-04T15:36:01.260Z,18.50
2018-04-04T15:38:28.800Z,18.40
2018-04-04T15:40:56.323Z,18.30
2018-04-04T15:43:23.891Z,18.30
2018-04-04T15:45:52.180Z,18.30
2018-04-04T15:48:20.463Z,18.20
2018-04-04T15:50:47.958Z,18.20
2018-04-04T15:53:15.443Z,18.20
2018-04-04T15:55:42.988Z,18.10
2018-04-04T15:58:10.517Z,18.00
2018-04-04T16:00:38.049Z,17.90
2018-04-04T16:03:05.570Z,17.60
2018-04-04T16:05:33.105Z,17.30
2018-04-04T16:08:00.641Z,17.10
2018-04-04T16:10:28.164Z,16.90
2018-04-04T16:12:56.750Z,16.80
2018-04-04T16:15:25.048Z,16.70
2018-04-04T16:17:52.543Z,16.70
2018-04-04T16:20:20.062Z,16.70
2018-04-04T16:22:47.577Z,16.70
2018-04-04T16:25:15.103Z,16.70
2018-04-04T16:27:42.598Z,16.70
2018-04-04T16:30:10.147Z,16.70
2018-04-04T16:32:37.664Z,16.80
2018-04-04T16:35:05.247Z,16.80
2018-04-04T16:37:32.755Z,16.70
2018-04-04T16:40:00.285Z,16.50
2018-04-04T16:42:27.793Z,16.50
2018-04-04T16:44:55.285Z,16.40
2018-04-04T16:47:22.817Z,16.30
2018-04-04T16:49:50.338Z,16.20
2018-04-04T16:52:18.662Z,16.20
2018-04-04T16:54:46.155Z,16.20
2018-04-04T16:57:14.455Z,16.10
2018-04-04T16:59:41.981Z,16.10
2018-04-04T17:02:09.533Z,16.10
2018-04-04T17:04:37.815Z,16.00
2018-04-04T17:07:05.365Z,16.00
2018-04-04T17:09:32.872Z,16.10
2018-04-04T17:12:00.419Z,16.10
2018-04-04T17:14:27.960Z,16.00
2018-04-04T17:16:56.239Z,16.10
2018-04-04T17:19:24.571Z,16.10
2018-04-04T17:21:52.085Z,16.00
2018-04-04T17:24:19.672Z,15.90
2018-04-04T17:26:47.181Z,15.90
2018-04-04T17:29:15.504Z,15.80
2018-04-04T17:31:43.016Z,15.80
2018-04-04T17:34:11.329Z,15.60
2018-04-04T17:36:38.833Z,15.60
2018-04-04T17:39:07.183Z,15.50
2018-04-04T17:41:34.695Z,15.40
2018-04-04T17:44:02.986Z,15.30
2018-04-04T17:46:30.560Z,15.20
2018-04-04T17:48:58.184Z,15.20
2018-04-04T17:51:26.473Z,15.10
2018-04-04T17:53:54.803Z,15.00
2018-04-04T17:56:22.324Z,15.00
2018-04-04T17:58:49.840Z,14.90
2018-04-04T18:01:17.386Z,14.90
2018-04-04T18:03:44.957Z,14.90
2018-04-04T18:06:12.480Z,14.80
2018-04-04T18:08:39.995Z,14.90
2018-04-04T18:11:08.395Z,15.00
2018-04-04T18:13:37.375Z,14.90
2018-04-04T18:16:04.945Z,14.90
2018-04-04T18:18:32.468Z,14.90
2018-04-04T18:21:00.861Z,14.80
2018-04-04T18:23:28.437Z,14.80
2018-04-04T18:25:55.976Z,14.70
2018-04-04T18:28:23.527Z,14.60
2018-04-04T18:30:51.802Z,14.60
2018-04-04T18:33:20.167Z,14.60
2018-04-04T18:35:47.653Z,14.60
2018-04-04T18:38:15.240Z,14.70
2018-04-04T18:40:42.750Z,14.70
2018-04-04T18:43:11.051Z,14.80
2018-04-04T18:45:38.597Z,14.70
2018-04-04T18:48:06.149Z,14.80
2018-04-04T18:50:34.419Z,14.90
2018-04-04T18:53:02.714Z,14.90
2018-04-04T18:55:30.257Z,14.90
2018-04-04T18:57:58.530Z,14.90
2018-04-04T19:00:26.821Z,14.80
2018-04-04T19:02:54.350Z,14.80
2018-04-04T19:05:21.894Z,14.80
2018-04-04T19:07:49.420Z,14.70
2018-04-04T19:10:16.970Z,14.70
2018-04-04T19:12:44.477Z,14.70
2018-04-04T19:15:12.023Z,14.60
2018-04-04T19:17:39.569Z,14.50
2018-04-04T19:20:07.127Z,14.40
2018-04-04T19:22:34.668Z,14.40
2018-04-04T19:25:02.270Z,14.40
2018-04-04T19:27:30.583Z,14.30
2018-04-04T19:29:58.080Z,14.30
2018-04-04T19:32:25.679Z,14.30
2018-04-04T19:34:53.217Z,14.30
2018-04-04T19:37:21.961Z,14.30
2018-04-04T19:39:49.474Z,14.20
2018-04-04T19:42:17.841Z,14.30
2018-04-04T19:44:45.422Z,14.20
2018-04-04T19:47:12.950Z,14.20
2018-04-04T19:49:40.492Z,14.30
2018-04-04T19:52:08.016Z,14.20
2018-04-04T19:54:35.590Z,14.20
2018-04-04T19:57:03.105Z,14.20
2018-04-04T19:59:31.433Z,14.10
2018-04-04T20:01:58.963Z,14.10
2018-04-04T20:04:26.514Z,14.10
2018-04-04T20:06:54.046Z,14.10
2018-04-04T20:09:21.576Z,14.10
2018-04-04T20:11:49.122Z,14.10
2018-04-04T20:14:16.633Z,14.10
2018-04-04T20:16:44.930Z,14.10
2018-04-04T20:19:12.447Z,14.10
2018-04-04T20:21:39.979Z,14.00
2018-04-04T20:24:07.501Z,14.00
2018-04-04T20:26:35.046Z,13.90
2018-04-04T20:29:03.345Z,13.90
2018-04-04T20:31:30.894Z,13.90
2018-04-04T20:33:58.409Z,13.90
2018-04-04T20:36:25.956Z,13.90
2018-04-04T20:38:53.461Z,13.80
2018-04-04T20:41:21.017Z,13.80
2018-04-04T20:43:48.534Z,13.80
2018-04-04T20:46:16.037Z,13.80
2018-04-04T20:48:43.628Z,13.80
2018-04-04T20:51:11.147Z,13.80
2018-04-04T20:53:38.714Z,13.70
2018-04-04T20:56:06.222Z,13.70
2018-04-04T20:58:33.768Z,13.70
2018-04-04T21:01:01.281Z,13.70
2018-04-04T21:03:29.395Z,13.70
2018-04-04T21:05:56.930Z,13.70
2018-04-04T21:08:24.483Z,13.70
2018-04-04T21:10:52.002Z,13.80
2018-04-04T21:13:19.563Z,13.80
2018-04-04T21:15:47.836Z,13.80
2018-04-04T21:18:15.386Z,13.80
2018-04-04T21:20:42.913Z,13.80
2018-04-04T21:23:10.409Z,13.80
2018-04-04T21:25:37.937Z,13.70
2018-04-04T21:28:05.470Z,13.70
2018-04-04T21:30:33.831Z,13.70
2018-04-04T21:33:01.351Z,13.70
2018-04-04T21:35:28.936Z,13.70
2018-04-04T21:37:57.221Z,13.60
2018-04-04T21:40:24.744Z,13.60
2018-04-04T21:42:52.285Z,13.70
2018-04-04T21:45:19.798Z,13.70
2018-04-04T21:47:47.385Z,13.70
2018-04-04T21:50:14.895Z,13.70
2018-04-04T21:52:43.176Z,13.80
2018-04-04T21:55:11.467Z,13.80
2018-04-04T21:57:38.963Z,13.80
2018-04-04T22:00:06.472Z,13.80
2018-04-04T22:02:34.031Z,13.80
2018-04-04T22:05:01.568Z,13.80
2018-04-04T22:07:29.880Z,13.80
2018-04-04T22:09:57.401Z,13.70
2018-04-04T22:12:24.939Z,13.70
2018-04-04T22:14:52.474Z,13.70
2018-04-04T22:17:19.984Z,13.80
2018-04-04T22:19:48.292Z,13.70
2018-04-04T22:22:15.787Z,13.70
2018-04-04T22:24:43.335Z,13.70
2018-04-04T22:27:10.861Z,13.70
2018-04-04T22:29:38.393Z,13.70
2018-04-04T22:32:06.674Z,13.60
2018-04-04T22:34:34.230Z,13.60
2018-04-04T22:37:02.524Z,13.50
2018-04-04T22:39:30.054Z,13.50
2018-04-04T22:41:57.546Z,13.50
2018-04-04T22:44:25.144Z,13.50
2018-04-04T22:46:52.644Z,13.60
2018-04-04T22:49:20.157Z,13.60
2018-04-04T22:51:47.683Z,13.60
2018-04-04T22:54:15.193Z,13.60
2018-04-04T22:56:42.709Z,13.70
2018-04-04T22:59:10.212Z,13.70
2018-04-04T23:01:37.746Z,13.60
2018-04-04T23:04:05.252Z,13.60
2018-04-04T23:06:32.818Z,13.70
2018-04-04T23:09:00.323Z,13.70
2018-04-04T23:11:29.363Z,13.60
2018-04-04T23:13:56.865Z,13.70
2018-04-04T23:16:24.384Z,13.70
2018-04-04T23:18:51.911Z,13.60
2018-04-04T23:21:20.238Z,13.50
2018-04-04T23:23:47.745Z,13.50
2018-04-04T23:26:16.082Z,13.40
2018-04-04T23:28:43.596Z,13.40
2018-04-04T23:31:11.863Z,13.30
2018-04-04T23:33:40.149Z,13.30
2018-04-04T23:36:07.664Z,13.30
2018-04-04T23:38:35.184Z,13.30
2018-04-04T23:41:02.700Z,13.30
2018-04-04T23:43:31.040Z,13.30
2018-04-04T23:45:58.544Z,13.30
2018-04-04T23:48:26.834Z,13.30
2018-04-04T23:50:54.415Z,13.30
2018-04-04T23:53:21.956Z,13.30
2018-04-04T23:55:49.453Z,13.20
2018-04-04T23:58:16.953Z,13.20
